sensor_id;sensor_type;location;lat;lon;timestamp;P1;durP1;ratioP1;P2;durP2;ratioP2
39266;SDS011;24967;51.154;13.812;2022-07-18T00:00:52;2.30;;;1.50;;
39266;SDS011;24967;51.154;13.812;2022-07-18T00:03:19;1.40;;;1.25;;
39266;SDS011;24967;51.154;13.812;2022-07-18T00:05:45;2.90;;;1.50;;
39266;SDS011;24967;51.154;13.812;2022-07-18T00:08:12;1.95;;;1.40;;
39266;SDS011;24967;51.154;13.812;2022-07-18T00:10:38;2.88;;;1.42;;
39266;SDS011;24967;51.154;13.812;2022-07-18T00:13:06;4.55;;;1.40;;
39266;SDS011;24967;51.154;13.812;2022-07-18T00:15:32;3.13;;;1.40;;
39266;SDS011;24967;51.154;13.812;2022-07-18T00:17:59;3.38;;;1.80;;
39266;SDS011;24967;51.154;13.812;2022-07-18T00:20:25;1.42;;;1.17;;
39266;SDS011;24967;51.154;13.812;2022-07-18T00:22:52;2.83;;;1.40;;
39266;SDS011;24967;51.154;13.812;2022-07-18T00:25:18;2.40;;;1.20;;
39266;SDS011;24967;51.154;13.812;2022-07-18T00:27:45;2.47;;;1.48;;
39266;SDS011;24967;51.154;13.812;2022-07-18T00:30:13;1.77;;;1.27;;
39266;SDS011;24967;51.154;13.812;2022-07-18T00:32:39;2.60;;;1.05;;
39266;SDS011;24967;51.154;13.812;2022-07-18T00:35:06;1.45;;;1.35;;
39266;SDS011;24967;51.154;13.812;2022-07-18T00:37:33;2.75;;;1.42;;
39266;SDS011;24967;51.154;13.812;2022-07-18T00:40:00;2.80;;;1.52;;
39266;SDS011;24967;51.154;13.812;2022-07-18T00:42:27;2.72;;;1.17;;
39266;SDS011;24967;51.154;13.812;2022-07-18T00:44:53;2.90;;;1.20;;
39266;SDS011;24967;51.154;13.812;2022-07-18T00:47:22;3.15;;;1.60;;
39266;SDS011;24967;51.154;13.812;2022-07-18T00:49:49;2.47;;;1.13;;
39266;SDS011;24967;51.154;13.812;2022-07-18T00:52:15;3.00;;;1.27;;
39266;SDS011;24967;51.154;13.812;2022-07-18T00:54:42;1.85;;;1.10;;
39266;SDS011;24967;51.154;13.812;2022-07-18T00:57:08;3.42;;;1.25;;
39266;SDS011;24967;51.154;13.812;2022-07-18T00:59:35;1.10;;;1.10;;
39266;SDS011;24967;51.154;13.812;2022-07-18T01:02:19;1.30;;;1.20;;
39266;SDS011;24967;51.154;13.812;2022-07-18T01:04:47;1.60;;;1.15;;
39266;SDS011;24967;51.154;13.812;2022-07-18T01:07:14;1.40;;;1.38;;
39266;SDS011;24967;51.154;13.812;2022-07-18T01:09:40;1.85;;;1.23;;
39266;SDS011;24967;51.154;13.812;2022-07-18T01:12:07;1.92;;;1.00;;
39266;SDS011;24967;51.154;13.812;2022-07-18T01:14:34;1.30;;;1.20;;
39266;SDS011;24967;51.154;13.812;2022-07-18T01:17:01;3.17;;;1.42;;
39266;SDS011;24967;51.154;13.812;2022-07-18T01:19:29;1.40;;;1.25;;
39266;SDS011;24967;51.154;13.812;2022-07-18T01:21:57;3.50;;;1.38;;
39266;SDS011;24967;51.154;13.812;2022-07-18T01:24:23;1.42;;;1.10;;
39266;SDS011;24967;51.154;13.812;2022-07-18T01:26:50;1.48;;;1.38;;
39266;SDS011;24967;51.154;13.812;2022-07-18T01:29:16;1.63;;;1.25;;
39266;SDS011;24967;51.154;13.812;2022-07-18T01:31:43;2.58;;;1.20;;
39266;SDS011;24967;51.154;13.812;2022-07-18T01:34:09;3.03;;;1.63;;
39266;SDS011;24967;51.154;13.812;2022-07-18T01:36:37;3.08;;;1.40;;
39266;SDS011;24967;51.154;13.812;2022-07-18T01:39:05;2.17;;;1.30;;
39266;SDS011;24967;51.154;13.812;2022-07-18T01:41:31;4.55;;;1.35;;
39266;SDS011;24967;51.154;13.812;2022-07-18T01:43:58;2.45;;;1.15;;
39266;SDS011;24967;51.154;13.812;2022-07-18T01:46:24;2.10;;;1.30;;
39266;SDS011;24967;51.154;13.812;2022-07-18T01:48:51;1.17;;;1.10;;
39266;SDS011;24967;51.154;13.812;2022-07-18T01:51:17;1.80;;;1.30;;
39266;SDS011;24967;51.154;13.812;2022-07-18T01:53:47;2.05;;;1.40;;
39266;SDS011;24967;51.154;13.812;2022-07-18T01:56:22;1.42;;;1.10;;
39266;SDS011;24967;51.154;13.812;2022-07-18T01:58:48;1.30;;;1.20;;
39266;SDS011;24967;51.154;13.812;2022-07-18T02:01:15;1.98;;;1.33;;
39266;SDS011;24967;51.154;13.812;2022-07-18T02:03:41;3.22;;;1.65;;
39266;SDS011;24967;51.154;13.812;2022-07-18T02:06:08;1.50;;;1.27;;
39266;SDS011;24967;51.154;13.812;2022-07-18T02:08:34;2.80;;;1.73;;
39266;SDS011;24967;51.154;13.812;2022-07-18T02:11:01;4.30;;;1.50;;
39266;SDS011;24967;51.154;13.812;2022-07-18T02:13:29;2.30;;;1.40;;
39266;SDS011;24967;51.154;13.812;2022-07-18T02:15:55;2.25;;;1.75;;
39266;SDS011;24967;51.154;13.812;2022-07-18T02:18:22;1.80;;;1.40;;
39266;SDS011;24967;51.154;13.812;2022-07-18T02:20:48;3.03;;;1.63;;
39266;SDS011;24967;51.154;13.812;2022-07-18T02:23:14;2.40;;;1.30;;
39266;SDS011;24967;51.154;13.812;2022-07-18T02:25:41;2.40;;;1.65;;
39266;SDS011;24967;51.154;13.812;2022-07-18T02:28:07;2.72;;;1.30;;
39266;SDS011;24967;51.154;13.812;2022-07-18T02:30:35;2.38;;;1.67;;
39266;SDS011;24967;51.154;13.812;2022-07-18T02:33:01;4.15;;;1.90;;
39266;SDS011;24967;51.154;13.812;2022-07-18T02:35:28;2.00;;;1.42;;
39266;SDS011;24967;51.154;13.812;2022-07-18T02:37:54;1.90;;;1.33;;
39266;SDS011;24967;51.154;13.812;2022-07-18T02:40:21;2.55;;;1.58;;
39266;SDS011;24967;51.154;13.812;2022-07-18T02:42:47;1.70;;;1.60;;
39266;SDS011;24967;51.154;13.812;2022-07-18T02:45:14;3.03;;;1.35;;
39266;SDS011;24967;51.154;13.812;2022-07-18T02:47:42;2.50;;;1.48;;
39266;SDS011;24967;51.154;13.812;2022-07-18T02:50:09;2.10;;;1.50;;
39266;SDS011;24967;51.154;13.812;2022-07-18T02:52:36;2.55;;;1.60;;
39266;SDS011;24967;51.154;13.812;2022-07-18T02:55:04;2.40;;;1.60;;
39266;SDS011;24967;51.154;13.812;2022-07-18T02:57:31;1.83;;;1.52;;
39266;SDS011;24967;51.154;13.812;2022-07-18T02:59:58;1.23;;;1.23;;
39266;SDS011;24967;51.154;13.812;2022-07-18T03:02:24;1.40;;;1.30;;
39266;SDS011;24967;51.154;13.812;2022-07-18T03:04:53;1.95;;;1.58;;
39266;SDS011;24967;51.154;13.812;2022-07-18T03:07:19;2.22;;;1.60;;
39266;SDS011;24967;51.154;13.812;2022-07-18T03:09:45;3.40;;;1.77;;
39266;SDS011;24967;51.154;13.812;2022-07-18T03:12:12;3.90;;;1.70;;
39266;SDS011;24967;51.154;13.812;2022-07-18T03:14:39;2.08;;;1.85;;
39266;SDS011;24967;51.154;13.812;2022-07-18T03:17:05;1.63;;;1.52;;
39266;SDS011;24967;51.154;13.812;2022-07-18T03:19:32;3.42;;;1.83;;
39266;SDS011;24967;51.154;13.812;2022-07-18T03:22:00;1.67;;;1.58;;
39266;SDS011;24967;51.154;13.812;2022-07-18T03:24:26;1.70;;;1.60;;
39266;SDS011;24967;51.154;13.812;2022-07-18T03:26:53;3.15;;;1.75;;
39266;SDS011;24967;51.154;13.812;2022-07-18T03:29:19;1.70;;;1.52;;
39266;SDS011;24967;51.154;13.812;2022-07-18T03:31:46;1.90;;;1.70;;
39266;SDS011;24967;51.154;13.812;2022-07-18T03:34:12;5.60;;;1.90;;
39266;SDS011;24967;51.154;13.812;2022-07-18T03:36:39;1.60;;;1.50;;
39266;SDS011;24967;51.154;13.812;2022-07-18T03:39:07;3.13;;;2.05;;
39266;SDS011;24967;51.154;13.812;2022-07-18T03:41:34;4.05;;;1.58;;
39266;SDS011;24967;51.154;13.812;2022-07-18T03:44:01;2.00;;;1.77;;
39266;SDS011;24967;51.154;13.812;2022-07-18T03:46:28;2.30;;;1.98;;
39266;SDS011;24967;51.154;13.812;2022-07-18T03:48:55;4.82;;;1.83;;
39266;SDS011;24967;51.154;13.812;2022-07-18T03:51:21;1.92;;;1.77;;
39266;SDS011;24967;51.154;13.812;2022-07-18T03:53:48;4.35;;;1.35;;
39266;SDS011;24967;51.154;13.812;2022-07-18T03:56:15;2.88;;;1.73;;
39266;SDS011;24967;51.154;13.812;2022-07-18T03:58:42;2.50;;;1.60;;
39266;SDS011;24967;51.154;13.812;2022-07-18T04:01:11;11.48;;;2.13;;
39266;SDS011;24967;51.154;13.812;2022-07-18T04:03:38;3.65;;;1.80;;
39266;SDS011;24967;51.154;13.812;2022-07-18T04:06:04;2.05;;;1.90;;
39266;SDS011;24967;51.154;13.812;2022-07-18T04:08:31;4.85;;;2.03;;
39266;SDS011;24967;51.154;13.812;2022-07-18T04:10:57;7.93;;;2.03;;
39266;SDS011;24967;51.154;13.812;2022-07-18T04:13:25;2.67;;;1.52;;
39266;SDS011;24967;51.154;13.812;2022-07-18T04:15:51;3.55;;;1.60;;
39266;SDS011;24967;51.154;13.812;2022-07-18T04:18:18;6.22;;;1.75;;
39266;SDS011;24967;51.154;13.812;2022-07-18T04:20:44;4.78;;;2.60;;
39266;SDS011;24967;51.154;13.812;2022-07-18T04:23:11;3.30;;;3.00;;
39266;SDS011;24967;51.154;13.812;2022-07-18T04:25:38;7.00;;;3.08;;
39266;SDS011;24967;51.154;13.812;2022-07-18T04:28:08;6.80;;;4.10;;
39266;SDS011;24967;51.154;13.812;2022-07-18T04:30:37;9.43;;;4.43;;
39266;SDS011;24967;51.154;13.812;2022-07-18T04:33:05;8.00;;;4.28;;
39266;SDS011;24967;51.154;13.812;2022-07-18T04:35:33;5.78;;;4.63;;
39266;SDS011;24967;51.154;13.812;2022-07-18T04:38:01;6.70;;;3.88;;
39266;SDS011;24967;51.154;13.812;2022-07-18T04:40:28;6.00;;;3.90;;
39266;SDS011;24967;51.154;13.812;2022-07-18T04:42:54;6.18;;;4.32;;
39266;SDS011;24967;51.154;13.812;2022-07-18T04:45:20;6.45;;;4.35;;
39266;SDS011;24967;51.154;13.812;2022-07-18T04:47:49;5.28;;;4.18;;
39266;SDS011;24967;51.154;13.812;2022-07-18T04:50:16;6.65;;;4.25;;
39266;SDS011;24967;51.154;13.812;2022-07-18T04:52:43;5.85;;;3.88;;
39266;SDS011;24967;51.154;13.812;2022-07-18T04:55:13;6.90;;;4.57;;
39266;SDS011;24967;51.154;13.812;2022-07-18T04:57:40;7.13;;;4.78;;
39266;SDS011;24967;51.154;13.812;2022-07-18T05:00:08;4.63;;;4.10;;
39266;SDS011;24967;51.154;13.812;2022-07-18T05:02:38;8.75;;;4.93;;
39266;SDS011;24967;51.154;13.812;2022-07-18T05:05:07;6.10;;;4.60;;
39266;SDS011;24967;51.154;13.812;2022-07-18T05:07:34;5.80;;;4.40;;
39266;SDS011;24967;51.154;13.812;2022-07-18T05:10:01;6.88;;;4.38;;
39266;SDS011;24967;51.154;13.812;2022-07-18T05:14:58;8.60;;;4.57;;
39266;SDS011;24967;51.154;13.812;2022-07-18T05:17:24;9.45;;;5.07;;
39266;SDS011;24967;51.154;13.812;2022-07-18T05:19:51;8.00;;;4.57;;
39266;SDS011;24967;51.154;13.812;2022-07-18T05:22:19;6.30;;;4.25;;
39266;SDS011;24967;51.154;13.812;2022-07-18T05:24:45;7.03;;;4.38;;
39266;SDS011;24967;51.154;13.812;2022-07-18T05:27:12;6.20;;;4.47;;
39266;SDS011;24967;51.154;13.812;2022-07-18T05:29:38;7.45;;;4.90;;
39266;SDS011;24967;51.154;13.812;2022-07-18T05:32:05;8.02;;;4.55;;
39266;SDS011;24967;51.154;13.812;2022-07-18T05:34:32;9.93;;;4.70;;
39266;SDS011;24967;51.154;13.812;2022-07-18T05:36:58;6.80;;;4.32;;
39266;SDS011;24967;51.154;13.812;2022-07-18T05:39:26;6.28;;;3.90;;
39266;SDS011;24967;51.154;13.812;2022-07-18T05:41:52;8.77;;;4.35;;
39266;SDS011;24967;51.154;13.812;2022-07-18T05:44:19;5.32;;;4.30;;
39266;SDS011;24967;51.154;13.812;2022-07-18T05:46:45;7.35;;;4.00;;
39266;SDS011;24967;51.154;13.812;2022-07-18T05:49:12;6.18;;;3.90;;
39266;SDS011;24967;51.154;13.812;2022-07-18T05:51:39;9.20;;;4.25;;
39266;SDS011;24967;51.154;13.812;2022-07-18T05:54:05;4.72;;;3.92;;
39266;SDS011;24967;51.154;13.812;2022-07-18T05:56:33;5.75;;;3.90;;
39266;SDS011;24967;51.154;13.812;2022-07-18T05:58:59;5.88;;;3.63;;
39266;SDS011;24967;51.154;13.812;2022-07-18T06:01:26;5.25;;;3.67;;
39266;SDS011;24967;51.154;13.812;2022-07-18T06:03:52;6.07;;;4.03;;
39266;SDS011;24967;51.154;13.812;2022-07-18T06:06:19;4.38;;;3.92;;
39266;SDS011;24967;51.154;13.812;2022-07-18T06:08:45;4.97;;;3.83;;
39266;SDS011;24967;51.154;13.812;2022-07-18T06:11:12;4.15;;;3.42;;
39266;SDS011;24967;51.154;13.812;2022-07-18T06:13:40;6.07;;;3.50;;
39266;SDS011;24967;51.154;13.812;2022-07-18T06:16:07;3.25;;;3.05;;
39266;SDS011;24967;51.154;13.812;2022-07-18T06:18:34;4.15;;;2.90;;
39266;SDS011;24967;51.154;13.812;2022-07-18T06:21:01;3.17;;;2.50;;
39266;SDS011;24967;51.154;13.812;2022-07-18T06:23:27;4.38;;;2.40;;
39266;SDS011;24967;51.154;13.812;2022-07-18T06:25:54;4.60;;;2.70;;
39266;SDS011;24967;51.154;13.812;2022-07-18T06:28:20;3.88;;;2.25;;
39266;SDS011;24967;51.154;13.812;2022-07-18T06:30:51;2.47;;;2.10;;
39266;SDS011;24967;51.154;13.812;2022-07-18T06:33:18;2.40;;;1.98;;
39266;SDS011;24967;51.154;13.812;2022-07-18T06:35:45;2.13;;;1.80;;
39266;SDS011;24967;51.154;13.812;2022-07-18T06:38:13;2.45;;;1.80;;
39266;SDS011;24967;51.154;13.812;2022-07-18T06:40:39;3.00;;;2.25;;
39266;SDS011;24967;51.154;13.812;2022-07-18T06:43:06;4.18;;;2.60;;
39266;SDS011;24967;51.154;13.812;2022-07-18T06:45:33;3.38;;;2.53;;
39266;SDS011;24967;51.154;13.812;2022-07-18T06:48:01;3.63;;;2.50;;
39266;SDS011;24967;51.154;13.812;2022-07-18T06:50:27;4.00;;;2.58;;
39266;SDS011;24967;51.154;13.812;2022-07-18T06:52:54;4.15;;;2.63;;
39266;SDS011;24967;51.154;13.812;2022-07-18T06:55:20;5.30;;;2.97;;
39266;SDS011;24967;51.154;13.812;2022-07-18T06:57:47;3.25;;;2.10;;
39266;SDS011;24967;51.154;13.812;2022-07-18T07:00:14;3.17;;;1.80;;
39266;SDS011;24967;51.154;13.812;2022-07-18T07:02:42;3.30;;;1.98;;
39266;SDS011;24967;51.154;13.812;2022-07-18T07:05:11;2.15;;;1.80;;
39266;SDS011;24967;51.154;13.812;2022-07-18T07:07:39;1.73;;;1.48;;
39266;SDS011;24967;51.154;13.812;2022-07-18T07:10:06;3.55;;;1.50;;
39266;SDS011;24967;51.154;13.812;2022-07-18T07:12:37;3.33;;;1.95;;
39266;SDS011;24967;51.154;13.812;2022-07-18T07:15:06;4.15;;;1.70;;
39266;SDS011;24967;51.154;13.812;2022-07-18T07:17:33;2.25;;;1.60;;
39266;SDS011;24967;51.154;13.812;2022-07-18T07:20:00;1.88;;;1.48;;
39266;SDS011;24967;51.154;13.812;2022-07-18T07:22:28;2.33;;;1.50;;
39266;SDS011;24967;51.154;13.812;2022-07-18T07:24:55;1.42;;;1.30;;
39266;SDS011;24967;51.154;13.812;2022-07-18T07:27:21;3.88;;;1.40;;
39266;SDS011;24967;51.154;13.812;2022-07-18T07:29:47;2.42;;;1.20;;
39266;SDS011;24967;51.154;13.812;2022-07-18T07:32:14;2.13;;;1.60;;
39266;SDS011;24967;51.154;13.812;2022-07-18T07:34:40;1.58;;;1.40;;
39266;SDS011;24967;51.154;13.812;2022-07-18T07:37:07;1.50;;;1.40;;
39266;SDS011;24967;51.154;13.812;2022-07-18T07:39:35;3.53;;;1.50;;
39266;SDS011;24967;51.154;13.812;2022-07-18T07:42:01;3.60;;;1.20;;
39266;SDS011;24967;51.154;13.812;2022-07-18T07:44:27;2.15;;;1.42;;
39266;SDS011;24967;51.154;13.812;2022-07-18T07:46:54;2.83;;;1.40;;
39266;SDS011;24967;51.154;13.812;2022-07-18T07:49:20;6.43;;;1.50;;
39266;SDS011;24967;51.154;13.812;2022-07-18T07:51:47;4.00;;;1.30;;
39266;SDS011;24967;51.154;13.812;2022-07-18T07:54:13;1.70;;;1.13;;
39266;SDS011;24967;51.154;13.812;2022-07-18T07:56:41;4.32;;;1.40;;
39266;SDS011;24967;51.154;13.812;2022-07-18T07:59:08;5.60;;;1.13;;
39266;SDS011;24967;51.154;13.812;2022-07-18T08:01:34;7.80;;;1.00;;
39266;SDS011;24967;51.154;13.812;2022-07-18T08:04:01;8.18;;;1.45;;
39266;SDS011;24967;51.154;13.812;2022-07-18T08:06:27;2.25;;;1.00;;
39266;SDS011;24967;51.154;13.812;2022-07-18T08:08:54;4.65;;;1.27;;
39266;SDS011;24967;51.154;13.812;2022-07-18T08:11:21;2.25;;;1.20;;
39266;SDS011;24967;51.154;13.812;2022-07-18T08:13:48;4.75;;;1.20;;
39266;SDS011;24967;51.154;13.812;2022-07-18T08:16:15;1.73;;;1.00;;
39266;SDS011;24967;51.154;13.812;2022-07-18T08:18:41;2.97;;;1.20;;
39266;SDS011;24967;51.154;13.812;2022-07-18T08:21:08;2.30;;;1.13;;
39266;SDS011;24967;51.154;13.812;2022-07-18T08:23:35;5.47;;;1.30;;
39266;SDS011;24967;51.154;13.812;2022-07-18T08:26:02;4.70;;;1.13;;
39266;SDS011;24967;51.154;13.812;2022-07-18T08:28:28;2.83;;;1.30;;
39266;SDS011;24967;51.154;13.812;2022-07-18T08:30:56;4.40;;;1.45;;
39266;SDS011;24967;51.154;13.812;2022-07-18T08:33:22;1.30;;;1.17;;
39266;SDS011;24967;51.154;13.812;2022-07-18T08:35:49;5.40;;;1.40;;
39266;SDS011;24967;51.154;13.812;2022-07-18T08:38:15;3.13;;;1.13;;
39266;SDS011;24967;51.154;13.812;2022-07-18T08:40:42;3.97;;;1.13;;
39266;SDS011;24967;51.154;13.812;2022-07-18T08:43:12;8.40;;;1.52;;
39266;SDS011;24967;51.154;13.812;2022-07-18T08:45:41;3.03;;;1.02;;
39266;SDS011;24967;51.154;13.812;2022-07-18T08:48:09;3.85;;;0.90;;
39266;SDS011;24967;51.154;13.812;2022-07-18T08:50:40;3.42;;;1.20;;
39266;SDS011;24967;51.154;13.812;2022-07-18T08:53:08;3.28;;;1.20;;
39266;SDS011;24967;51.154;13.812;2022-07-18T08:55:36;2.70;;;1.05;;
39266;SDS011;24967;51.154;13.812;2022-07-18T08:58:03;1.60;;;0.85;;
39266;SDS011;24967;51.154;13.812;2022-07-18T09:00:29;0.93;;;0.70;;
39266;SDS011;24967;51.154;13.812;2022-07-18T09:02:57;2.28;;;1.00;;
39266;SDS011;24967;51.154;13.812;2022-07-18T09:05:26;2.78;;;1.08;;
39266;SDS011;24967;51.154;13.812;2022-07-18T09:07:54;1.23;;;0.85;;
39266;SDS011;24967;51.154;13.812;2022-07-18T09:10:40;3.25;;;1.00;;
39266;SDS011;24967;51.154;13.812;2022-07-18T09:13:07;1.63;;;1.02;;
39266;SDS011;24967;51.154;13.812;2022-07-18T09:15:33;2.78;;;0.88;;
39266;SDS011;24967;51.154;13.812;2022-07-18T09:18:00;2.97;;;1.10;;
39266;SDS011;24967;51.154;13.812;2022-07-18T09:20:27;3.90;;;1.08;;
39266;SDS011;24967;51.154;13.812;2022-07-18T09:22:54;2.55;;;1.08;;
39266;SDS011;24967;51.154;13.812;2022-07-18T09:25:21;2.63;;;0.90;;
39266;SDS011;24967;51.154;13.812;2022-07-18T09:27:50;3.60;;;1.30;;
39266;SDS011;24967;51.154;13.812;2022-07-18T09:30:20;4.07;;;1.25;;
39266;SDS011;24967;51.154;13.812;2022-07-18T09:32:50;3.20;;;0.85;;
39266;SDS011;24967;51.154;13.812;2022-07-18T09:35:19;3.47;;;1.05;;
39266;SDS011;24967;51.154;13.812;2022-07-18T09:37:53;2.35;;;1.00;;
39266;SDS011;24967;51.154;13.812;2022-07-18T09:40:24;3.03;;;0.80;;
39266;SDS011;24967;51.154;13.812;2022-07-18T09:42:53;3.35;;;0.90;;
39266;SDS011;24967;51.154;13.812;2022-07-18T09:45:22;1.30;;;0.82;;
39266;SDS011;24967;51.154;13.812;2022-07-18T09:47:49;1.92;;;0.90;;
39266;SDS011;24967;51.154;13.812;2022-07-18T09:50:22;4.00;;;1.10;;
39266;SDS011;24967;51.154;13.812;2022-07-18T09:53:02;1.70;;;0.80;;
39266;SDS011;24967;51.154;13.812;2022-07-18T09:55:34;3.13;;;0.95;;
39266;SDS011;24967;51.154;13.812;2022-07-18T09:58:02;4.70;;;1.05;;
39266;SDS011;24967;51.154;13.812;2022-07-18T10:00:31;1.95;;;1.65;;
39266;SDS011;24967;51.154;13.812;2022-07-18T10:03:00;4.88;;;1.05;;
39266;SDS011;24967;51.154;13.812;2022-07-18T10:05:27;2.00;;;1.20;;
39266;SDS011;24967;51.154;13.812;2022-07-18T10:07:55;1.95;;;1.10;;
39266;SDS011;24967;51.154;13.812;2022-07-18T10:10:24;4.78;;;1.10;;
39266;SDS011;24967;51.154;13.812;2022-07-18T10:12:51;3.25;;;1.05;;
39266;SDS011;24967;51.154;13.812;2022-07-18T10:15:20;1.00;;;0.90;;
39266;SDS011;24967;51.154;13.812;2022-07-18T10:17:48;2.13;;;1.02;;
39266;SDS011;24967;51.154;13.812;2022-07-18T10:20:15;1.98;;;1.02;;
39266;SDS011;24967;51.154;13.812;2022-07-18T10:22:46;1.75;;;1.10;;
39266;SDS011;24967;51.154;13.812;2022-07-18T10:25:12;3.92;;;1.40;;
39266;SDS011;24967;51.154;13.812;2022-07-18T10:27:54;2.63;;;1.35;;
39266;SDS011;24967;51.154;13.812;2022-07-18T10:30:31;3.22;;;1.35;;
39266;SDS011;24967;51.154;13.812;2022-07-18T10:33:00;2.78;;;1.38;;
39266;SDS011;24967;51.154;13.812;2022-07-18T10:38:29;1.58;;;1.45;;
39266;SDS011;24967;51.154;13.812;2022-07-18T10:41:06;1.50;;;1.40;;
39266;SDS011;24967;51.154;13.812;2022-07-18T10:43:42;3.85;;;1.30;;
39266;SDS011;24967;51.154;13.812;2022-07-18T10:46:11;2.63;;;1.30;;
39266;SDS011;24967;51.154;13.812;2022-07-18T10:48:48;2.03;;;1.30;;
39266;SDS011;24967;51.154;13.812;2022-07-18T10:51:16;1.70;;;1.30;;
39266;SDS011;24967;51.154;13.812;2022-07-18T10:59:35;1.85;;;1.15;;
39266;SDS011;24967;51.154;13.812;2022-07-18T11:02:04;1.30;;;0.97;;
39266;SDS011;24967;51.154;13.812;2022-07-18T11:04:33;1.98;;;1.30;;
39266;SDS011;24967;51.154;13.812;2022-07-18T11:07:06;1.92;;;1.30;;
39266;SDS011;24967;51.154;13.812;2022-07-18T11:09:36;3.40;;;1.50;;
39266;SDS011;24967;51.154;13.812;2022-07-18T11:12:17;1.33;;;1.23;;
39266;SDS011;24967;51.154;13.812;2022-07-18T11:14:59;1.38;;;1.27;;
39266;SDS011;24967;51.154;13.812;2022-07-18T11:20:24;2.08;;;1.30;;
39266;SDS011;24967;51.154;13.812;2022-07-18T11:22:53;1.98;;;1.10;;
39266;SDS011;24967;51.154;13.812;2022-07-18T11:25:22;2.20;;;1.30;;
39266;SDS011;24967;51.154;13.812;2022-07-18T11:27:51;1.40;;;1.25;;
39266;SDS011;24967;51.154;13.812;2022-07-18T11:30:20;2.28;;;1.42;;
39266;SDS011;24967;51.154;13.812;2022-07-18T11:32:47;3.78;;;1.52;;
39266;SDS011;24967;51.154;13.812;2022-07-18T11:35:21;3.38;;;1.38;;
39266;SDS011;24967;51.154;13.812;2022-07-18T11:37:49;1.58;;;1.30;;
39266;SDS011;24967;51.154;13.812;2022-07-18T11:40:16;1.55;;;1.20;;
39266;SDS011;24967;51.154;13.812;2022-07-18T11:42:43;3.38;;;1.30;;
39266;SDS011;24967;51.154;13.812;2022-07-18T11:45:11;2.92;;;1.58;;
39266;SDS011;24967;51.154;13.812;2022-07-18T11:47:46;2.13;;;1.20;;
39266;SDS011;24967;51.154;13.812;2022-07-18T11:50:14;2.28;;;1.30;;
39266;SDS011;24967;51.154;13.812;2022-07-18T11:52:43;2.20;;;1.20;;
39266;SDS011;24967;51.154;13.812;2022-07-18T11:55:11;1.15;;;1.02;;
39266;SDS011;24967;51.154;13.812;2022-07-18T11:57:38;2.40;;;1.20;;
39266;SDS011;24967;51.154;13.812;2022-07-18T12:00:15;1.50;;;1.00;;
39266;SDS011;24967;51.154;13.812;2022-07-18T12:02:44;1.55;;;1.10;;
39266;SDS011;24967;51.154;13.812;2022-07-18T12:05:16;2.50;;;1.50;;
39266;SDS011;24967;51.154;13.812;2022-07-18T12:07:43;2.05;;;1.05;;
39266;SDS011;24967;51.154;13.812;2022-07-18T12:10:16;3.17;;;1.17;;
39266;SDS011;24967;51.154;13.812;2022-07-18T12:12:43;1.20;;;1.02;;
39266;SDS011;24967;51.154;13.812;2022-07-18T12:15:10;1.48;;;0.90;;
39266;SDS011;24967;51.154;13.812;2022-07-18T12:17:42;4.30;;;1.30;;
39266;SDS011;24967;51.154;13.812;2022-07-18T12:20:12;1.67;;;1.05;;
39266;SDS011;24967;51.154;13.812;2022-07-18T12:28:22;3.13;;;1.70;;
39266;SDS011;24967;51.154;13.812;2022-07-18T12:30:51;2.88;;;1.23;;
39266;SDS011;24967;51.154;13.812;2022-07-18T12:33:18;1.35;;;1.10;;
39266;SDS011;24967;51.154;13.812;2022-07-18T12:35:47;4.78;;;1.33;;
39266;SDS011;24967;51.154;13.812;2022-07-18T12:38:21;1.27;;;1.00;;
39266;SDS011;24967;51.154;13.812;2022-07-18T12:40:49;1.58;;;1.00;;
39266;SDS011;24967;51.154;13.812;2022-07-18T12:43:28;0.90;;;0.90;;
39266;SDS011;24967;51.154;13.812;2022-07-18T12:45:57;2.65;;;1.00;;
39266;SDS011;24967;51.154;13.812;2022-07-18T12:48:26;0.98;;;0.90;;
39266;SDS011;24967;51.154;13.812;2022-07-18T12:51:03;1.80;;;1.38;;
39266;SDS011;24967;51.154;13.812;2022-07-18T12:53:42;1.70;;;1.20;;
39266;SDS011;24967;51.154;13.812;2022-07-18T12:56:10;2.80;;;1.00;;
39266;SDS011;24967;51.154;13.812;2022-07-18T12:58:36;2.65;;;1.25;;
39266;SDS011;24967;51.154;13.812;2022-07-18T13:01:03;1.73;;;1.08;;
39266;SDS011;24967;51.154;13.812;2022-07-18T13:03:34;2.83;;;1.58;;
39266;SDS011;24967;51.154;13.812;2022-07-18T13:06:02;2.67;;;1.20;;
39266;SDS011;24967;51.154;13.812;2022-07-18T13:08:29;1.95;;;1.08;;
39266;SDS011;24967;51.154;13.812;2022-07-18T13:10:58;2.63;;;1.17;;
39266;SDS011;24967;51.154;13.812;2022-07-18T13:13:25;1.48;;;1.10;;
39266;SDS011;24967;51.154;13.812;2022-07-18T13:15:52;1.85;;;1.10;;
39266;SDS011;24967;51.154;13.812;2022-07-18T13:18:19;1.98;;;1.40;;
39266;SDS011;24967;51.154;13.812;2022-07-18T13:20:45;1.50;;;1.30;;
39266;SDS011;24967;51.154;13.812;2022-07-18T13:23:13;2.60;;;1.15;;
39266;SDS011;24967;51.154;13.812;2022-07-18T13:25:40;2.25;;;1.10;;
39266;SDS011;24967;51.154;13.812;2022-07-18T13:28:07;2.28;;;1.20;;
39266;SDS011;24967;51.154;13.812;2022-07-18T13:30:35;2.47;;;1.10;;
39266;SDS011;24967;51.154;13.812;2022-07-18T13:33:03;1.67;;;1.00;;
39266;SDS011;24967;51.154;13.812;2022-07-18T13:35:30;1.15;;;1.08;;
39266;SDS011;24967;51.154;13.812;2022-07-18T13:37:56;2.10;;;1.38;;
39266;SDS011;24967;51.154;13.812;2022-07-18T13:40:24;2.47;;;1.02;;
39266;SDS011;24967;51.154;13.812;2022-07-18T13:42:50;2.10;;;1.30;;
39266;SDS011;24967;51.154;13.812;2022-07-18T13:45:18;1.65;;;1.40;;
39266;SDS011;24967;51.154;13.812;2022-07-18T13:47:45;3.10;;;1.10;;
39266;SDS011;24967;51.154;13.812;2022-07-18T13:50:11;1.65;;;1.00;;
39266;SDS011;24967;51.154;13.812;2022-07-18T13:52:38;3.80;;;1.10;;
39266;SDS011;24967;51.154;13.812;2022-07-18T13:55:05;2.08;;;1.08;;
39266;SDS011;24967;51.154;13.812;2022-07-18T13:57:33;3.90;;;1.20;;
39266;SDS011;24967;51.154;13.812;2022-07-18T13:59:59;1.00;;;0.90;;
39266;SDS011;24967;51.154;13.812;2022-07-18T14:02:26;1.15;;;0.93;;
39266;SDS011;24967;51.154;13.812;2022-07-18T14:04:53;1.55;;;1.15;;
39266;SDS011;24967;51.154;13.812;2022-07-18T14:07:20;2.30;;;1.30;;
39266;SDS011;24967;51.154;13.812;2022-07-18T14:09:46;1.70;;;1.20;;
39266;SDS011;24967;51.154;13.812;2022-07-18T14:12:13;1.75;;;0.93;;
39266;SDS011;24967;51.154;13.812;2022-07-18T14:14:41;1.20;;;1.10;;
39266;SDS011;24967;51.154;13.812;2022-07-18T14:17:07;1.13;;;1.05;;
39266;SDS011;24967;51.154;13.812;2022-07-18T14:19:33;2.40;;;1.10;;
39266;SDS011;24967;51.154;13.812;2022-07-18T14:22:02;1.48;;;1.30;;
39266;SDS011;24967;51.154;13.812;2022-07-18T14:24:28;3.70;;;1.38;;
39266;SDS011;24967;51.154;13.812;2022-07-18T14:26:55;1.83;;;1.30;;
39266;SDS011;24967;51.154;13.812;2022-07-18T14:29:21;3.33;;;1.60;;
39266;SDS011;24967;51.154;13.812;2022-07-18T14:31:49;2.75;;;1.23;;
39266;SDS011;24967;51.154;13.812;2022-07-18T14:34:17;2.55;;;1.40;;
39266;SDS011;24967;51.154;13.812;2022-07-18T14:36:43;1.23;;;1.13;;
39266;SDS011;24967;51.154;13.812;2022-07-18T14:39:09;3.97;;;1.42;;
39266;SDS011;24967;51.154;13.812;2022-07-18T14:41:36;1.20;;;1.10;;
39266;SDS011;24967;51.154;13.812;2022-07-18T14:44:02;2.78;;;1.27;;
39266;SDS011;24967;51.154;13.812;2022-07-18T14:46:29;4.10;;;1.48;;
39266;SDS011;24967;51.154;13.812;2022-07-18T14:48:57;1.30;;;1.20;;
39266;SDS011;24967;51.154;13.812;2022-07-18T14:51:23;1.77;;;0.98;;
39266;SDS011;24967;51.154;13.812;2022-07-18T14:53:50;2.42;;;1.08;;
39266;SDS011;24967;51.154;13.812;2022-07-18T14:56:16;1.48;;;1.10;;